sensor_id;sensor_type;location;lat;lon;timestamp;pressure;altitude;pressure_sealevel;temperature;humidity
79540;BME280;68991;52.122;5.406;2023-04-26T00:01:01;102113.06;;;6.67;68.77
79540;BME280;68991;52.122;5.406;2023-04-26T00:03:36;102113.09;;;6.65;68.81
79540;BME280;68991;52.122;5.406;2023-04-26T00:06:11;102112.22;;;6.65;68.67
79540;BME280;68991;52.122;5.406;2023-04-26T00:08:40;102114.00;;;6.63;68.56
79540;BME280;68991;52.122;5.406;2023-04-26T00:11:22;102111.38;;;6.61;69.23
79540;BME280;68991;52.122;5.406;2023-04-26T00:13:54;102120.28;;;6.60;68.89
79540;BME280;68991;52.122;5.406;2023-04-26T00:16:23;102119.44;;;6.58;68.76
79540;BME280;68991;52.122;5.406;2023-04-26T00:18:50;102116.78;;;6.57;68.84
79540;BME280;68991;52.122;5.406;2023-04-26T00:21:19;102119.47;;;6.55;68.90
79540;BME280;68991;52.122;5.406;2023-04-26T00:23:48;102109.69;;;6.54;68.62
79540;BME280;68991;52.122;5.406;2023-04-26T00:26:19;102107.91;;;6.53;68.96
79540;BME280;68991;52.122;5.406;2023-04-26T00:28:45;102113.28;;;6.52;68.81
79540;BME280;68991;52.122;5.406;2023-04-26T00:31:14;102111.53;;;6.49;68.86
79540;BME280;68991;52.122;5.406;2023-04-26T00:33:41;102105.34;;;6.47;69.04
79540;BME280;68991;52.122;5.406;2023-04-26T00:36:12;102109.78;;;6.45;68.88
79540;BME280;68991;52.122;5.406;2023-04-26T00:38:40;102112.47;;;6.45;68.79
79540;BME280;68991;52.122;5.406;2023-04-26T00:41:06;102107.19;;;6.40;68.96
79540;BME280;68991;52.122;5.406;2023-04-26T00:43:33;102100.97;;;6.40;69.00
79540;BME280;68991;52.122;5.406;2023-04-26T00:46:00;102102.75;;;6.38;68.84
79540;BME280;68991;52.122;5.406;2023-04-26T00:48:27;102104.56;;;6.36;68.75
79540;BME280;68991;52.122;5.406;2023-04-26T00:50:57;102100.16;;;6.33;68.95
79540;BME280;68991;52.122;5.406;2023-04-26T00:53:28;102102.84;;;6.32;68.47
79540;BME280;68991;52.122;5.406;2023-04-26T00:56:11;102093.09;;;6.29;69.23
79540;BME280;68991;52.122;5.406;2023-04-26T00:58:38;102094.88;;;6.27;68.96
79540;BME280;68991;52.122;5.406;2023-04-26T01:01:09;102094.91;;;6.24;68.83
79540;BME280;68991;52.122;5.406;2023-04-26T01:03:44;102099.41;;;6.22;68.88
79540;BME280;68991;52.122;5.406;2023-04-26T02:02:11;102099.06;;;5.69;68.93
79540;BME280;68991;52.122;5.406;2023-04-26T03:34:44;102104.06;;;5.01;69.33
79540;BME280;68991;52.122;5.406;2023-04-26T03:37:40;102097.00;;;4.99;69.69
79540;BME280;68991;52.122;5.406;2023-04-26T03:40:07;102091.66;;;4.97;69.63
79540;BME280;68991;52.122;5.406;2023-04-26T03:42:38;102091.69;;;4.94;69.87
79540;BME280;68991;52.122;5.406;2023-04-26T03:45:05;102087.25;;;4.93;69.24
79540;BME280;68991;52.122;5.406;2023-04-26T03:47:32;102093.44;;;4.92;69.59
79540;BME280;68991;52.122;5.406;2023-04-26T03:50:11;102089.03;;;4.90;69.44
79540;BME280;68991;52.122;5.406;2023-04-26T03:52:58;102086.41;;;4.88;69.67
79540;BME280;68991;52.122;5.406;2023-04-26T03:55:28;102098.81;;;4.86;69.78
79540;BME280;68991;52.122;5.406;2023-04-26T03:58:34;102094.41;;;4.84;69.42
79540;BME280;68991;52.122;5.406;2023-04-26T04:01:07;102094.41;;;4.82;69.42
79540;BME280;68991;52.122;5.406;2023-04-26T04:03:34;102098.88;;;4.80;69.92
79540;BME280;68991;52.122;5.406;2023-04-26T04:06:10;102095.31;;;4.78;69.97
79540;BME280;68991;52.122;5.406;2023-04-26T05:17:08;102115.97;;;4.35;70.17
79540;BME280;68991;52.122;5.406;2023-04-26T21:23:09;102231.41;;;8.49;65.61
79540;BME280;68991;52.122;5.406;2023-04-26T21:26:31;102235.06;;;8.43;65.62
79540;BME280;68991;52.122;5.406;2023-04-26T21:49:56;102250.97;;;8.02;65.96
79540;BME280;68991;52.122;5.406;2023-04-26T21:57:31;102250.31;;;7.89;65.78
79540;BME280;68991;52.122;5.406;2023-04-26T22:55:20;102272.09;;;7.01;66.64
79540;BME280;68991;52.122;5.406;2023-04-26T23:13:38;102276.84;;;6.76;66.92
79540;BME280;68991;52.122;5.406;2023-04-26T23:16:38;102283.06;;;6.74;66.28
79540;BME280;68991;52.122;5.406;2023-04-26T23:19:15;102279.53;;;6.70;66.60
79540;BME280;68991;52.122;5.406;2023-04-26T23:22:13;102278.69;;;6.68;66.92
79540;BME280;68991;52.122;5.406;2023-04-26T23:25:53;102286.75;;;6.64;66.39
79540;BME280;68991;52.122;5.406;2023-04-26T23:33:03;102293.97;;;6.54;66.43
79540;BME280;68991;52.122;5.406;2023-04-26T23:36:10;102295.78;;;6.50;66.77
79540;BME280;68991;52.122;5.406;2023-04-26T23:46:29;102292.34;;;6.38;67.12
79540;BME280;68991;52.122;5.406;2023-04-26T23:57:30;102308.47;;;6.26;67.23
